CheckWX is a tool to help pilots better visualize weather data.  It is not intended as a substitute for an official pre-flight weather briefing.

16:57:13 UTC

LFPB TAF
Paris-Le Bourget Airport
Paris, France
TAF LFPB 181100Z 1812/1912 13010KT CAVOK PROB40 TEMPO 1821/1906 -SHRA SCT060TCU PROB30 1823/1903 25015G40KT 3000 TSRAGS SCT050CB BECMG 1906/1908 25010KT PROB30 TEMPO 1911/1912 4000 SHRA SCT040CB

Jun-18@
12:00 UTC

Jun-18 @ 12:00 UTC

Jun-19@
06:00 UTC

Jun-19 @ 06:00 UTC

TAF LFPB 181100Z 1812/1912 13010KT CAVOK
Wind
  • 130° at 10 KTS
Conditions
No significant weather
Cloud Levels
  • No significant clouds

Jun-18@
21:00 UTC

Jun-18 @ 21:00 UTC

Jun-19@
06:00 UTC

Jun-19 @ 06:00 UTC

PROB40 TEMPO 1821/1906 -SHRA SCT060TCU

Temporary - 40% Likelihood

Temporary - 40% Likelihood during this time.

Conditions
Light Rain
Cloud Levels
  • Scattered at 6,000' AGL

Jun-18@
23:00 UTC

Jun-18 @ 23:00 UTC

Jun-19@
03:00 UTC

Jun-19 @ 03:00 UTC

PROB30 1823/1903 25015G40KT 3000 TSRAGS SCT050CB

Probable - 30% Likelihood

Probable - 30% Likelihood during this time.

Wind
  • 250° at 15 KTS
  • {Gusting to 40 KTS
Conditions
Thunderstorm, Rain, Thunderstorm, Small hail
Cloud Levels
  • Scattered at 5,000' AGL

Jun-19@
06:00 UTC

Jun-19 @ 06:00 UTC

Jun-19@
12:00 UTC

Jun-19 @ 12:00 UTC

BECMG 1906/1908 25010KT

Becoming

Becoming Conditions expected by Wed, Jun 19, 2019 @ 08:00 UTC

Wind
  • 250° at 10 KTS
Conditions
No significant weather
Cloud Levels
  • No significant clouds

Jun-19@
11:00 UTC

Jun-19 @ 11:00 UTC

Jun-19@
12:00 UTC

Jun-19 @ 12:00 UTC

PROB30 TEMPO 1911/1912 4000 SHRA SCT040CB

Temporary - 30% Likelihood

Temporary - 30% Likelihood during this time.

Conditions
Rain
Cloud Levels
  • Scattered at 4,000' AGL